createdAt,value
2022-12-09T00:01:23.141Z,17.70
2022-12-09T00:06:28.298Z,17.13
2022-12-09T00:11:30.807Z,16.90
2022-12-09T00:16:33.289Z,17.17
2022-12-09T00:21:35.868Z,15.07
2022-12-09T00:26:38.936Z,13.73
2022-12-09T00:31:41.418Z,14.63
2022-12-09T00:36:43.792Z,16.02
2022-12-09T00:41:46.246Z,15.38
2022-12-09T00:46:48.927Z,16.02
2022-12-09T00:51:51.459Z,15.38
2022-12-09T00:56:53.995Z,15.35
2022-12-09T01:01:56.395Z,15.27
2022-12-09T01:06:58.930Z,15.75
2022-12-09T01:12:01.207Z,15.10
2022-12-09T01:17:03.887Z,15.70
2022-12-09T01:22:07.138Z,16.15
2022-12-09T01:27:09.644Z,16.63
2022-12-09T01:32:12.504Z,15.05
2022-12-09T01:37:15.067Z,15.38
2022-12-09T01:42:23.336Z,15.38
2022-12-09T01:47:25.730Z,16.08
2022-12-09T01:52:28.128Z,16.30
2022-12-09T01:57:30.785Z,16.42
2022-12-09T02:02:37.621Z,15.95
2022-12-09T02:07:40.393Z,16.55
2022-12-09T02:12:51.289Z,17.35
2022-12-09T02:18:00.481Z,16.20
2022-12-09T02:23:43.564Z,13.77
2022-12-09T02:29:04.257Z,14.60
2022-12-09T02:34:18.379Z,16.52
2022-12-09T02:39:31.164Z,16.63
2022-12-09T02:44:35.933Z,16.15
2022-12-09T02:49:41.948Z,19.00
2022-12-09T02:54:44.742Z,19.45
2022-12-09T02:59:47.764Z,18.65
2022-12-09T03:05:04.814Z,18.38
2022-12-09T03:10:13.037Z,17.75
2022-12-09T03:15:23.619Z,17.88
2022-12-09T03:20:31.071Z,17.80
2022-12-09T03:25:43.170Z,17.08
2022-12-09T03:30:47.155Z,22.35
2022-12-09T03:35:58.715Z,20.90
2022-12-09T03:41:23.062Z,21.67
2022-12-09T03:46:26.303Z,20.05
2022-12-09T03:51:37.084Z,19.58
2022-12-09T03:56:44.740Z,21.55
2022-12-09T04:01:47.793Z,20.95
2022-12-09T04:06:53.653Z,25.42
2022-12-09T04:11:56.189Z,22.08
2022-12-09T04:16:58.609Z,22.23
2022-12-09T04:22:01.323Z,22.00
2022-12-09T04:27:04.226Z,21.13
2022-12-09T04:32:06.956Z,19.25
2022-12-09T04:37:09.512Z,17.98
2022-12-09T04:42:12.191Z,20.02
2022-12-09T04:47:14.847Z,19.77
2022-12-09T04:52:20.663Z,20.35
2022-12-09T04:57:23.442Z,17.40
2022-12-09T05:02:26.765Z,17.75
2022-12-09T05:07:32.055Z,21.50
2022-12-09T05:12:34.947Z,24.83
2022-12-09T05:17:37.368Z,21.48
2022-12-09T05:22:40.102Z,20.88
2022-12-09T05:27:45.553Z,21.35
2022-12-09T05:32:48.184Z,20.73
2022-12-09T05:37:50.670Z,21.60
2022-12-09T05:42:53.034Z,22.02
2022-12-09T05:47:55.630Z,21.17
2022-12-09T05:52:58.152Z,23.25
2022-12-09T05:58:01.499Z,21.42
2022-12-09T06:03:04.301Z,20.70
2022-12-09T06:08:07.891Z,19.75
2022-12-09T06:13:10.500Z,18.02
2022-12-09T06:18:13.119Z,19.33
2022-12-09T06:23:15.995Z,21.20
2022-12-09T06:28:19.848Z,19.67
2022-12-09T06:33:52.884Z,20.20
2022-12-09T06:38:45.565Z,20.70
2022-12-09T06:43:48.239Z,22.50
2022-12-09T06:48:51.176Z,25.75
2022-12-09T06:53:54.619Z,27.23
2022-12-09T06:58:57.445Z,24.85
2022-12-09T07:04:00.310Z,28.60
2022-12-09T07:09:06.679Z,32.00
2022-12-09T07:14:10.713Z,29.85
2022-12-09T07:19:19.087Z,29.55
2022-12-09T07:24:22.047Z,30.75
2022-12-09T07:29:24.695Z,30.92
2022-12-09T07:34:27.483Z,29.00
2022-12-09T07:39:30.416Z,28.42
2022-12-09T07:44:33.134Z,30.17
2022-12-09T07:49:35.748Z,30.15
2022-12-09T07:54:38.365Z,30.25
2022-12-09T07:59:40.873Z,28.02
2022-12-09T08:04:43.464Z,28.27
2022-12-09T08:09:46.451Z,27.10
2022-12-09T08:14:49.386Z,24.15
2022-12-09T08:19:53.178Z,24.98
2022-12-09T08:24:55.848Z,23.23
2022-12-09T08:29:58.493Z,21.50
2022-12-09T08:35:01.225Z,19.92
2022-12-09T08:40:04.971Z,19.52
2022-12-09T08:45:07.929Z,19.83
2022-12-09T08:50:11.416Z,19.73
2022-12-09T08:55:14.001Z,25.27
2022-12-09T09:00:17.487Z,26.35
2022-12-09T09:05:20.010Z,24.88
2022-12-09T09:10:22.701Z,26.15
2022-12-09T09:15:25.803Z,25.67
2022-12-09T09:20:28.360Z,26.70
2022-12-09T09:25:31.323Z,23.70
2022-12-09T09:30:34.052Z,23.90
2022-12-09T09:35:37.940Z,25.95
2022-12-09T09:40:43.753Z,28.60
2022-12-09T09:45:47.187Z,31.65
2022-12-09T09:51:02.282Z,33.75
2022-12-09T09:56:43.941Z,33.08
2022-12-09T10:02:13.814Z,34.53
2022-12-09T10:07:42.924Z,33.38
2022-12-09T10:13:17.716Z,33.80
2022-12-09T10:18:33.694Z,33.67
2022-12-09T10:23:36.259Z,35.38
2022-12-09T10:28:47.067Z,35.20
2022-12-09T10:33:50.525Z,32.53
2022-12-09T10:38:53.561Z,31.45
2022-12-09T10:44:23.929Z,29.23
2022-12-09T10:49:27.104Z,27.75
2022-12-09T10:54:44.221Z,25.70
2022-12-09T11:00:02.192Z,23.98
2022-12-09T11:05:29.839Z,25.48
2022-12-09T11:10:33.386Z,25.13
2022-12-09T11:15:42.076Z,24.38
2022-12-09T11:20:59.997Z,26.58
2022-12-09T11:26:04.744Z,24.33
2022-12-09T11:31:29.896Z,23.48
2022-12-09T11:36:40.142Z,25.55
2022-12-09T11:42:17.191Z,26.17
2022-12-09T11:48:22.560Z,19.98
2022-12-09T11:53:24.676Z,18.80
2022-12-09T11:58:46.720Z,15.98
2022-12-09T12:03:53.135Z,15.15
2022-12-09T12:09:04.819Z,12.52
2022-12-09T12:14:29.040Z,11.15
2022-12-09T12:19:36.712Z,16.25
2022-12-09T12:25:09.900Z,16.90
2022-12-09T12:30:33.069Z,10.93
2022-12-09T12:35:47.532Z,10.97
2022-12-09T12:40:53.997Z,11.75
2022-12-09T12:46:21.734Z,14.13
2022-12-09T12:51:26.936Z,14.82
2022-12-09T12:56:43.137Z,13.52
2022-12-09T13:02:01.272Z,14.25
2022-12-09T13:07:24.845Z,11.63
2022-12-09T13:12:54.258Z,15.85
2022-12-09T13:17:57.124Z,22.15
2022-12-09T13:23:28.730Z,19.60
2022-12-09T13:28:47.972Z,21.13
2022-12-09T13:33:52.749Z,23.70
2022-12-09T13:38:56.289Z,22.60
2022-12-09T13:44:11.397Z,22.55
2022-12-09T13:49:24.511Z,20.27
2022-12-09T13:54:28.680Z,22.70
2022-12-09T13:59:30.952Z,21.80
2022-12-09T14:04:38.298Z,20.38
2022-12-09T14:09:54.950Z,21.20
2022-12-09T14:15:23.440Z,23.85
2022-12-09T14:20:31.738Z,14.95
2022-12-09T14:25:36.759Z,16.48
2022-12-09T14:31:06.549Z,14.68
2022-12-09T14:36:14.121Z,15.25
2022-12-09T14:41:26.413Z,15.85
2022-12-09T14:46:40.400Z,16.08
2022-12-09T14:51:55.872Z,16.95
2022-12-09T14:57:01.035Z,16.95
2022-12-09T15:02:19.301Z,15.98
2022-12-09T15:07:29.041Z,18.25
2022-12-09T15:12:38.744Z,17.38
2022-12-09T15:17:46.045Z,16.83
2022-12-09T15:22:54.361Z,17.08
2022-12-09T15:28:02.312Z,18.15
2022-12-09T15:33:13.118Z,19.17
2022-12-09T15:38:15.744Z,16.75
2022-12-09T15:43:18.136Z,20.48
2022-12-09T15:48:24.350Z,18.67
2022-12-09T15:53:53.573Z,18.85
2022-12-09T15:59:01.924Z,18.30
2022-12-09T16:04:07.202Z,20.38
2022-12-09T16:09:14.732Z,21.88
2022-12-09T16:14:18.865Z,24.85
2022-12-09T16:19:39.332Z,26.77
2022-12-09T16:25:14.148Z,23.75
2022-12-09T16:30:21.384Z,23.20
2022-12-09T16:35:40.779Z,24.20
2022-12-09T16:40:46.371Z,22.07
2022-12-09T16:45:50.336Z,21.98
2022-12-09T16:51:13.145Z,30.13
2022-12-09T16:56:28.492Z,29.50
2022-12-09T17:01:35.726Z,32.42
2022-12-09T17:06:40.338Z,23.92
2022-12-09T17:11:48.529Z,25.17
2022-12-09T17:16:51.539Z,23.40
2022-12-09T17:21:55.251Z,23.27
2022-12-09T17:26:58.649Z,23.40
2022-12-09T17:32:01.029Z,24.13
2022-12-09T17:37:04.036Z,24.38
2022-12-09T17:42:06.533Z,30.10
2022-12-09T17:47:09.107Z,32.78
2022-12-09T17:52:11.728Z,35.17
2022-12-09T17:57:14.421Z,36.38
2022-12-09T18:02:16.991Z,35.13
2022-12-09T18:07:19.552Z,39.50
2022-12-09T18:12:22.355Z,45.83
2022-12-09T18:17:24.746Z,41.55
2022-12-09T18:22:27.326Z,43.17
2022-12-09T18:27:30.729Z,45.05
2022-12-09T18:32:36.165Z,41.40
2022-12-09T18:37:39.450Z,35.83
2022-12-09T18:42:41.858Z,28.45
2022-12-09T18:47:44.469Z,26.55
2022-12-09T18:52:47.823Z,24.17
2022-12-09T18:57:50.226Z,25.73
2022-12-09T19:02:52.670Z,30.95
2022-12-09T19:07:55.294Z,30.48
2022-12-09T19:12:57.977Z,31.00
2022-12-09T19:18:00.518Z,34.75
2022-12-09T19:23:03.935Z,28.83
2022-12-09T19:28:06.357Z,27.70
2022-12-09T19:33:08.955Z,28.60
2022-12-09T19:38:11.419Z,26.35
2022-12-09T19:43:14.209Z,26.85
2022-12-09T19:48:16.550Z,23.90
2022-12-09T19:53:19.145Z,26.98
2022-12-09T19:58:21.638Z,26.70
2022-12-09T20:03:25.234Z,28.65
2022-12-09T20:08:27.866Z,28.65
2022-12-09T20:13:32.184Z,27.13
2022-12-09T20:18:35.257Z,26.80
2022-12-09T20:23:39.982Z,27.90
2022-12-09T20:28:44.620Z,38.60
2022-12-09T20:33:47.535Z,46.13
2022-12-09T20:38:52.799Z,48.83
2022-12-09T20:43:57.545Z,41.00
2022-12-09T20:49:00.702Z,41.78
2022-12-09T20:54:05.847Z,37.35
2022-12-09T20:59:10.677Z,41.35
2022-12-09T21:04:13.678Z,43.20
2022-12-09T21:09:19.575Z,41.08
2022-12-09T21:14:22.318Z,42.42
2022-12-09T21:19:30.524Z,43.13
2022-12-09T21:24:33.861Z,50.42
2022-12-09T21:29:36.661Z,51.17
2022-12-09T21:34:39.318Z,50.15
2022-12-09T21:39:41.877Z,46.55
2022-12-09T21:44:44.702Z,48.85
2022-12-09T21:49:47.135Z,49.05
2022-12-09T21:54:55.220Z,47.92
2022-12-09T21:59:58.118Z,48.03
2022-12-09T22:05:00.590Z,44.67
2022-12-09T22:10:03.227Z,43.38
2022-12-09T22:15:07.756Z,43.25
2022-12-09T22:25:33.462Z,46.22
2022-12-09T22:30:37.016Z,39.08
2022-12-09T22:35:40.036Z,29.48
2022-12-09T22:40:43.484Z,27.83
2022-12-09T22:45:46.123Z,26.83
2022-12-09T22:50:48.864Z,27.65
2022-12-09T22:55:51.352Z,28.42
2022-12-09T23:00:54.970Z,29.00
2022-12-09T23:05:57.460Z,28.17
2022-12-09T23:11:13.597Z,30.52
2022-12-09T23:16:22.410Z,32.25
2022-12-09T23:21:36.501Z,35.63
2022-12-09T23:26:41.210Z,33.10
2022-12-09T23:31:44.379Z,32.88
2022-12-09T23:36:47.242Z,28.10
2022-12-09T23:41:49.759Z,29.23
2022-12-09T23:46:52.390Z,27.90
2022-12-09T23:51:54.959Z,28.50
2022-12-09T23:56:57.347Z,22.92
